Terminal Aerodrome Forecast
Issued by NWS Cleveland, OH

Home | Current Version | Previous Version | Text Only | Print | Product List | Glossary Off
Versions: 1 2 3 4 5 6 7 8 9 10 11 12 13 14 15 16 17 18

000
FTUS41 KCLE 281400 AAA
TAFMFD
TAF AMD
KMFD 281404Z 2814/2912 VRB03KT P6SM SKC
      TEMPO 2814/2815 5SM BR
     FM282000 18006KT P6SM SCT250
     FM290300 15010KT P6SM OVC100
     FM291100 16012G20KT P6SM OVC080=

USA.gov is the U.S. government's official web portal to all federal, state and local government web resources and services.